createdAt,value
2022-09-04T00:00:07.372Z,11.60
2022-09-04T00:02:48.506Z,13.32
2022-09-04T00:05:24.232Z,12.25
2022-09-04T00:08:16.290Z,10.68
2022-09-04T00:10:56.973Z,11.60
2022-09-04T00:13:42.201Z,11.00
2022-09-04T00:16:32.768Z,11.13
2022-09-04T00:19:17.942Z,10.70
2022-09-04T00:21:53.627Z,11.85
2022-09-04T00:24:26.229Z,10.57
2022-09-04T00:27:19.249Z,13.45
2022-09-04T00:30:06.634Z,12.57
2022-09-04T00:32:45.409Z,12.30
2022-09-04T00:35:20.946Z,10.63
2022-09-04T00:38:11.539Z,13.73
2022-09-04T00:41:07.811Z,11.02
2022-09-04T00:43:56.253Z,13.00
2022-09-04T00:46:51.715Z,11.43
2022-09-04T00:49:46.332Z,12.30
2022-09-04T00:52:37.726Z,10.53
2022-09-04T00:55:16.215Z,11.75
2022-09-04T00:58:04.540Z,10.45
2022-09-04T01:00:32.103Z,11.35
2022-09-04T01:03:07.843Z,9.65
2022-09-04T01:06:18.871Z,10.20
2022-09-04T01:09:05.165Z,11.55
2022-09-04T01:11:59.090Z,12.30
2022-09-04T01:14:39.896Z,11.55
2022-09-04T01:17:23.437Z,11.88
2022-09-04T01:20:06.499Z,10.13
2022-09-04T01:23:06.076Z,11.05
2022-09-04T01:26:09.101Z,11.63
2022-09-04T01:28:54.535Z,10.82
2022-09-04T01:32:12.522Z,12.48
2022-09-04T01:35:20.344Z,11.23
2022-09-04T01:38:18.047Z,12.00
2022-09-04T01:40:55.232Z,10.02
2022-09-04T01:43:22.949Z,10.90
2022-09-04T01:46:14.261Z,12.30
2022-09-04T01:49:02.537Z,10.70
2022-09-04T01:51:56.880Z,10.02
2022-09-04T01:54:23.682Z,10.13
2022-09-04T01:57:32.319Z,11.40
2022-09-04T02:00:17.838Z,11.50
2022-09-04T02:02:53.991Z,11.33
2022-09-04T02:05:30.228Z,10.82
2022-09-04T02:08:26.240Z,11.73
2022-09-04T02:11:19.281Z,11.20
2022-09-04T02:14:14.604Z,10.40
2022-09-04T02:16:44.297Z,11.30
2022-09-04T02:19:52.027Z,11.00
2022-09-04T02:22:46.429Z,12.57
2022-09-04T02:25:36.439Z,11.43
2022-09-04T02:28:15.075Z,11.20
2022-09-04T02:31:14.162Z,10.90
2022-09-04T02:34:12.196Z,12.55
2022-09-04T02:37:03.767Z,12.32
2022-09-04T02:39:52.221Z,11.98
2022-09-04T02:42:51.208Z,10.63
2022-09-04T02:45:34.465Z,10.37
2022-09-04T02:48:09.329Z,11.40
2022-09-04T02:51:13.295Z,10.57
2022-09-04T02:54:07.108Z,11.40
2022-09-04T02:57:00.975Z,10.65
2022-09-04T02:59:36.953Z,11.07
2022-09-04T03:02:06.022Z,10.95
2022-09-04T03:04:57.019Z,10.68
2022-09-04T03:07:42.942Z,11.32
2022-09-04T03:10:20.505Z,11.60
2022-09-04T03:12:52.270Z,10.63
2022-09-04T03:15:38.095Z,10.63
2022-09-04T03:18:35.272Z,11.20
2022-09-04T03:21:15.751Z,9.57
2022-09-04T03:24:19.571Z,9.85
2022-09-04T03:26:56.713Z,8.63
2022-09-04T03:29:34.705Z,10.30
2022-09-04T03:32:15.993Z,9.18
2022-09-04T03:35:08.072Z,9.93
2022-09-04T03:38:04.145Z,8.82
2022-09-04T03:40:40.042Z,8.80
2022-09-04T03:43:22.138Z,10.30
2022-09-04T03:45:59.221Z,10.00
2022-09-04T03:48:49.385Z,9.05
2022-09-04T03:51:43.589Z,8.95
2022-09-04T03:54:27.213Z,9.37
2022-09-04T03:57:31.485Z,9.85
2022-09-04T04:00:08.212Z,10.07
2022-09-04T04:02:44.995Z,8.40
2022-09-04T04:05:53.661Z,8.95
2022-09-04T04:08:52.692Z,9.37
2022-09-04T04:11:35.194Z,9.05
2022-09-04T04:14:25.619Z,9.25
2022-09-04T04:17:08.267Z,11.40
2022-09-04T04:19:57.635Z,11.35
2022-09-04T04:22:42.113Z,12.37
2022-09-04T04:25:18.687Z,12.18
2022-09-04T04:28:10.379Z,12.68
2022-09-04T04:30:48.597Z,16.90
2022-09-04T04:33:34.057Z,16.98
2022-09-04T04:36:06.962Z,14.13
2022-09-04T04:39:10.142Z,11.55
2022-09-04T04:41:52.087Z,9.93
2022-09-04T04:44:25.124Z,10.40
2022-09-04T04:47:04.605Z,10.23
2022-09-04T04:50:15.699Z,12.00
2022-09-04T04:53:09.742Z,11.57
2022-09-04T04:55:53.930Z,10.52
2022-09-04T04:58:32.287Z,9.55
2022-09-04T05:01:08.043Z,11.32
2022-09-04T05:03:43.159Z,9.33
2022-09-04T05:06:10.135Z,9.48
2022-09-04T05:08:47.499Z,10.50
2022-09-04T05:11:43.527Z,9.88
2022-09-04T05:14:29.158Z,9.20
2022-09-04T05:17:34.132Z,8.77
2022-09-04T05:20:27.507Z,11.07
2022-09-04T05:23:12.890Z,9.00
2022-09-04T05:26:17.126Z,9.70
2022-09-04T05:29:10.982Z,9.35
2022-09-04T05:32:08.868Z,10.33
2022-09-04T05:34:57.410Z,10.82
2022-09-04T05:37:42.810Z,11.70
2022-09-04T05:40:15.864Z,14.07
2022-09-04T05:43:16.560Z,8.18
2022-09-04T05:46:09.541Z,7.77
2022-09-04T05:48:53.759Z,9.80
2022-09-04T05:51:55.991Z,7.22
2022-09-04T05:54:51.295Z,7.18
2022-09-04T05:57:40.421Z,6.75
2022-09-04T06:00:16.431Z,6.07
2022-09-04T06:03:01.780Z,6.03
2022-09-04T06:05:43.479Z,7.55
2022-09-04T06:08:45.296Z,6.10
2022-09-04T06:11:48.886Z,6.05
2022-09-04T06:14:18.489Z,6.20
2022-09-04T06:17:28.077Z,5.20
2022-09-04T06:20:00.872Z,6.40
2022-09-04T06:22:33.914Z,7.15
2022-09-04T06:25:31.958Z,7.13
2022-09-04T06:28:29.439Z,6.20
2022-09-04T06:31:13.209Z,7.25
2022-09-04T06:33:48.881Z,6.35
2022-09-04T06:36:46.556Z,7.00
2022-09-04T06:39:23.247Z,5.03
2022-09-04T06:42:20.867Z,6.23
2022-09-04T06:44:56.181Z,6.80
2022-09-04T06:48:10.841Z,7.28
2022-09-04T06:51:07.379Z,5.88
2022-09-04T06:53:50.717Z,4.72
2022-09-04T06:56:40.687Z,5.53
2022-09-04T06:59:30.394Z,6.80
2022-09-04T07:02:15.195Z,7.95
2022-09-04T07:04:51.120Z,5.18
2022-09-04T07:07:39.893Z,5.80
2022-09-04T07:10:31.073Z,5.70
2022-09-04T07:13:16.483Z,6.53
2022-09-04T07:15:50.550Z,6.20
2022-09-04T07:18:43.465Z,5.40
2022-09-04T07:21:55.287Z,6.15
2022-09-04T07:25:01.194Z,5.20
2022-09-04T07:27:39.650Z,6.13
2022-09-04T07:30:07.835Z,6.07
2022-09-04T07:32:47.714Z,6.95
2022-09-04T07:35:27.298Z,6.22
2022-09-04T07:38:03.621Z,6.00
2022-09-04T07:40:47.245Z,7.68
2022-09-04T07:43:33.374Z,5.63
2022-09-04T07:46:19.331Z,7.20
2022-09-04T07:49:01.563Z,6.55
2022-09-04T07:51:36.746Z,5.37
2022-09-04T07:54:12.224Z,5.80
2022-09-04T07:57:05.643Z,5.80
2022-09-04T08:00:03.663Z,5.57
2022-09-04T08:02:49.563Z,6.60
2022-09-04T08:05:22.684Z,6.63
2022-09-04T08:07:55.880Z,5.90
2022-09-04T08:10:48.524Z,6.32
2022-09-04T08:13:21.112Z,5.75
2022-09-04T08:16:30.893Z,6.45
2022-09-04T08:19:22.602Z,6.27
2022-09-04T08:21:52.341Z,6.28
2022-09-04T08:24:22.277Z,5.38
2022-09-04T08:27:07.958Z,5.13
2022-09-04T08:29:46.808Z,4.95
2022-09-04T08:32:42.528Z,5.33
2022-09-04T08:35:33.783Z,5.82
2022-09-04T08:38:19.198Z,5.68
2022-09-04T08:41:20.177Z,6.43
2022-09-04T08:44:42.571Z,5.82
2022-09-04T08:47:34.481Z,6.93
2022-09-04T08:50:39.501Z,6.32
2022-09-04T08:53:44.910Z,6.35
2022-09-04T08:56:35.084Z,5.53
2022-09-04T08:59:29.995Z,6.60
2022-09-04T09:02:20.042Z,4.20
2022-09-04T09:05:04.601Z,5.55
2022-09-04T09:08:01.975Z,6.38
2022-09-04T09:10:58.144Z,5.90
2022-09-04T09:13:35.132Z,6.22
2022-09-04T09:16:21.449Z,5.83
2022-09-04T09:19:09.759Z,6.30
2022-09-04T09:21:45.436Z,5.18
2022-09-04T09:24:31.007Z,4.78
2022-09-04T09:27:24.089Z,4.28
2022-09-04T09:29:56.921Z,6.37
2022-09-04T09:32:58.871Z,5.03
2022-09-04T09:35:56.778Z,4.72
2022-09-04T09:38:45.969Z,4.93
2022-09-04T09:41:31.624Z,4.43
2022-09-04T09:44:17.197Z,3.83
2022-09-04T09:46:50.059Z,4.20
2022-09-04T09:49:54.300Z,3.88
2022-09-04T09:52:54.377Z,3.53
2022-09-04T09:55:54.342Z,4.15
2022-09-04T09:58:42.717Z,3.80
2022-09-04T10:01:19.269Z,3.60
2022-09-04T10:04:17.569Z,4.57
2022-09-04T10:06:59.636Z,4.57
2022-09-04T10:09:51.246Z,4.55
2022-09-04T10:12:40.407Z,3.63
2022-09-04T10:15:44.897Z,3.80
2022-09-04T10:18:36.650Z,3.90
2022-09-04T10:21:37.736Z,3.53
2022-09-04T10:24:28.563Z,3.83
2022-09-04T10:27:22.142Z,4.90
2022-09-04T10:30:10.863Z,3.75
2022-09-04T10:33:14.868Z,3.83
2022-09-04T10:36:02.132Z,3.50
2022-09-04T10:38:59.551Z,3.88
2022-09-04T10:41:45.084Z,3.40
2022-09-04T10:44:21.408Z,4.57
2022-09-04T10:47:07.745Z,4.03
2022-09-04T10:49:41.908Z,3.60
2022-09-04T10:52:36.676Z,4.18
2022-09-04T10:55:14.097Z,4.10
2022-09-04T10:57:55.303Z,4.60
2022-09-04T11:00:27.267Z,3.70
2022-09-04T11:03:08.955Z,3.83
2022-09-04T11:06:10.385Z,4.28
2022-09-04T11:08:54.644Z,3.80
2022-09-04T11:11:43.666Z,4.00
2022-09-04T11:14:33.903Z,5.05
2022-09-04T11:17:27.628Z,4.45
2022-09-04T11:20:31.529Z,4.00
2022-09-04T11:23:16.868Z,3.87
2022-09-04T11:26:28.399Z,4.00
2022-09-04T11:29:22.018Z,4.32
2022-09-04T11:32:25.094Z,4.45
2022-09-04T11:34:55.137Z,4.50
2022-09-04T11:38:15.345Z,6.43
2022-09-04T11:41:04.199Z,5.00
2022-09-04T11:44:03.249Z,4.53
2022-09-04T11:46:45.170Z,4.25
2022-09-04T11:49:22.297Z,3.97
2022-09-04T11:52:02.474Z,3.50
2022-09-04T11:55:16.582Z,3.78
2022-09-04T11:57:49.396Z,4.28
2022-09-04T12:00:18.176Z,4.18
2022-09-04T12:03:08.537Z,3.50
2022-09-04T12:05:41.486Z,3.90
2022-09-04T12:08:14.017Z,4.10
2022-09-04T12:10:53.111Z,4.07
2022-09-04T12:14:00.705Z,4.55
2022-09-04T12:17:02.371Z,3.92
2022-09-04T12:20:07.880Z,4.17
2022-09-04T12:23:04.354Z,4.18
2022-09-04T12:25:50.333Z,3.70
2022-09-04T12:28:41.804Z,4.07
2022-09-04T12:31:27.429Z,7.13
2022-09-04T12:34:08.687Z,3.60
2022-09-04T12:36:41.616Z,3.50
2022-09-04T12:39:17.253Z,3.95
2022-09-04T12:41:59.502Z,4.30
2022-09-04T12:44:53.789Z,3.35
2022-09-04T12:47:31.547Z,3.60
2022-09-04T12:50:11.446Z,4.53
2022-09-04T12:53:11.271Z,5.57
2022-09-04T12:55:50.299Z,4.07
2022-09-04T12:58:44.776Z,5.32
2022-09-04T13:01:13.635Z,3.57
2022-09-04T13:04:01.015Z,5.18
2022-09-04T13:06:58.255Z,3.65
2022-09-04T13:10:08.932Z,5.05
2022-09-04T13:13:02.814Z,4.05
2022-09-04T13:16:00.991Z,3.73
2022-09-04T13:18:38.876Z,3.78
2022-09-04T13:21:24.554Z,3.47
2022-09-04T13:24:18.938Z,5.15
2022-09-04T13:27:04.543Z,4.20
2022-09-04T13:30:02.386Z,5.23
2022-09-04T13:32:54.394Z,4.03
2022-09-04T13:35:46.270Z,4.38
2022-09-04T13:38:34.123Z,4.10
2022-09-04T13:41:09.735Z,3.55
2022-09-04T13:43:55.369Z,4.00
2022-09-04T13:46:28.371Z,3.67
2022-09-04T13:49:04.362Z,3.97
2022-09-04T13:52:02.170Z,6.47
2022-09-04T13:54:40.401Z,3.70
2022-09-04T13:57:23.079Z,8.37
2022-09-04T13:59:51.032Z,3.55
2022-09-04T14:02:21.283Z,4.20
2022-09-04T14:04:53.907Z,3.80
2022-09-04T14:07:32.403Z,4.82
2022-09-04T14:10:03.963Z,3.63
2022-09-04T14:12:53.525Z,4.70
2022-09-04T14:15:57.419Z,4.13
2022-09-04T14:18:49.223Z,3.75
2022-09-04T14:21:34.481Z,4.20
2022-09-04T14:24:27.468Z,3.97
2022-09-04T14:26:55.568Z,3.50
2022-09-04T14:29:28.791Z,4.25
2022-09-04T14:31:55.710Z,4.00
2022-09-04T14:34:38.819Z,3.72
2022-09-04T14:37:43.313Z,3.50
2022-09-04T14:40:16.336Z,3.90
2022-09-04T14:43:17.528Z,4.30
2022-09-04T14:46:26.341Z,4.15
2022-09-04T14:49:02.946Z,3.92
2022-09-04T14:51:35.063Z,3.70
2022-09-04T14:54:02.922Z,3.78
2022-09-04T14:56:37.036Z,3.63
2022-09-04T14:59:28.328Z,4.43
2022-09-04T15:02:21.710Z,3.90
2022-09-04T15:04:54.664Z,4.73
2022-09-04T15:07:24.893Z,4.72
2022-09-04T15:09:52.193Z,4.80
2022-09-04T15:12:27.490Z,4.43
2022-09-04T15:15:10.523Z,5.35
2022-09-04T15:17:47.217Z,3.90
2022-09-04T15:20:21.308Z,4.18
2022-09-04T15:23:27.255Z,5.13
2022-09-04T15:26:07.936Z,5.25
2022-09-04T15:28:45.308Z,4.47
2022-09-04T15:31:36.122Z,4.30
2022-09-04T15:34:23.978Z,4.18
2022-09-04T15:36:51.101Z,10.05
2022-09-04T15:39:32.259Z,6.32
2022-09-04T15:41:59.353Z,5.75
2022-09-04T15:44:47.815Z,5.07
2022-09-04T15:47:39.019Z,4.90
2022-09-04T15:50:20.806Z,5.05
2022-09-04T15:53:12.252Z,5.32
2022-09-04T15:55:43.162Z,5.47
2022-09-04T15:58:28.932Z,5.37
2022-09-04T16:01:04.776Z,5.90
2022-09-04T16:03:53.860Z,6.68
2022-09-04T16:06:31.961Z,5.05
2022-09-04T16:09:11.015Z,5.18
2022-09-04T16:11:45.632Z,5.30
2022-09-04T16:14:23.633Z,7.45
2022-09-04T16:17:02.336Z,4.75
2022-09-04T16:19:47.655Z,7.80
2022-09-04T16:22:22.584Z,5.10
2022-09-04T16:24:54.926Z,5.33
2022-09-04T16:27:25.570Z,11.55
2022-09-04T16:30:04.172Z,5.47
2022-09-04T16:32:34.828Z,5.03
2022-09-04T16:35:19.055Z,7.22
2022-09-04T16:37:57.578Z,4.90
2022-09-04T16:40:31.823Z,7.05
2022-09-04T16:43:25.378Z,5.00
2022-09-04T16:46:34.736Z,6.47
2022-09-04T16:49:10.211Z,5.00
2022-09-04T16:51:39.809Z,6.73
2022-09-04T16:54:13.100Z,6.68
2022-09-04T16:57:16.700Z,6.65
2022-09-04T16:59:47.320Z,5.90
2022-09-04T17:02:43.147Z,6.85
2022-09-04T17:05:10.159Z,5.77
2022-09-04T17:07:43.875Z,4.85
2022-09-04T17:10:23.227Z,5.13
2022-09-04T17:12:59.014Z,4.68
2022-09-04T17:15:53.839Z,5.30
2022-09-04T17:18:24.558Z,8.10
2022-09-04T17:27:14.421Z,6.95
2022-09-04T17:28:57.523Z,4.97
2022-09-04T17:29:14.376Z,5.10
2022-09-04T17:30:29.094Z,5.40
2022-09-04T17:38:09.054Z,6.00
2022-09-04T17:40:41.554Z,5.45
2022-09-04T17:40:51.771Z,6.53
2022-09-04T17:42:04.735Z,6.07
2022-09-04T17:44:47.725Z,5.82
2022-09-04T17:47:33.645Z,6.20
2022-09-04T17:50:01.909Z,6.53
2022-09-04T17:52:32.244Z,6.25
2022-09-04T17:55:06.168Z,7.60
2022-09-04T17:58:00.097Z,5.55
2022-09-04T18:01:14.430Z,6.27
2022-09-04T18:04:02.931Z,5.05
2022-09-04T18:06:42.379Z,6.22
2022-09-04T18:09:22.417Z,5.70
2022-09-04T18:12:04.599Z,7.65
2022-09-04T18:15:12.926Z,6.37
2022-09-04T18:18:10.929Z,5.53
2022-09-04T18:20:50.940Z,5.20
2022-09-04T18:23:51.626Z,4.70
2022-09-04T18:26:40.713Z,5.68
2022-09-04T18:30:42.891Z,6.70
2022-09-04T18:37:08.801Z,6.07
2022-09-04T18:37:16.937Z,6.15
2022-09-04T18:38:47.235Z,6.53
2022-09-04T18:47:28.769Z,6.72
2022-09-04T18:50:28.302Z,6.50
2022-09-04T18:50:44.809Z,5.63
2022-09-04T18:50:44.950Z,7.03
2022-09-04T18:53:16.566Z,6.18
2022-09-04T18:55:51.233Z,5.03
2022-09-04T18:59:00.049Z,6.23
2022-09-04T19:01:42.897Z,5.05
2022-09-04T19:04:19.141Z,5.47
2022-09-04T19:07:06.889Z,5.18
2022-09-04T19:10:19.063Z,7.65
2022-09-04T19:12:57.670Z,5.23
2022-09-04T19:15:37.135Z,7.43
2022-09-04T19:18:25.521Z,4.90
2022-09-04T19:21:21.575Z,5.43
2022-09-04T19:24:18.964Z,6.20
2022-09-04T19:26:55.000Z,6.63
2022-09-04T19:29:28.238Z,5.00
2022-09-04T19:32:18.244Z,7.30
2022-09-04T19:35:00.899Z,5.18
2022-09-04T19:39:41.407Z,5.28
2022-09-04T19:46:01.038Z,5.67
2022-09-04T19:46:06.217Z,5.97
2022-09-04T19:46:44.160Z,6.22
2022-09-04T19:52:58.938Z,5.50
2022-09-04T19:53:31.769Z,5.55
2022-09-04T19:55:24.767Z,5.37
2022-09-04T19:58:15.434Z,6.22
2022-09-04T20:00:55.446Z,5.15
2022-09-04T20:03:30.136Z,4.90
2022-09-04T20:06:26.565Z,5.88
2022-09-04T20:09:18.765Z,5.73
2022-09-04T20:11:54.150Z,6.28
2022-09-04T20:14:46.173Z,6.70
2022-09-04T20:17:39.576Z,5.63
2022-09-04T20:20:18.131Z,6.50
2022-09-04T20:22:58.190Z,6.30
2022-09-04T20:25:41.989Z,5.20
2022-09-04T20:28:28.074Z,6.32
2022-09-04T20:31:36.167Z,5.72
2022-09-04T20:34:26.478Z,6.65
2022-09-04T20:37:32.545Z,5.73
2022-09-04T20:40:36.364Z,6.70
2022-09-04T20:43:03.146Z,5.03
2022-09-04T20:47:35.231Z,6.03
2022-09-04T20:52:44.510Z,5.70
2022-09-04T20:53:05.235Z,5.97
2022-09-04T20:54:53.374Z,5.65
2022-09-04T21:02:41.009Z,6.07
2022-09-04T21:03:10.761Z,5.65
2022-09-04T21:04:09.384Z,5.50
2022-09-04T21:07:09.025Z,5.43
2022-09-04T21:09:55.188Z,5.68
2022-09-04T21:12:48.709Z,6.65
2022-09-04T21:15:22.324Z,6.63
2022-09-04T21:18:10.275Z,6.25
2022-09-04T21:21:08.213Z,6.33
2022-09-04T21:23:46.452Z,5.72
2022-09-04T21:26:58.698Z,6.10
2022-09-04T21:30:03.277Z,6.30
2022-09-04T21:32:42.946Z,6.20
2022-09-04T21:35:24.636Z,5.63
2022-09-04T21:38:00.381Z,6.32
2022-09-04T21:40:52.927Z,6.35
2022-09-04T21:43:47.501Z,6.50
2022-09-04T21:46:37.713Z,5.80
2022-09-04T21:49:49.148Z,5.90
2022-09-04T21:52:38.919Z,5.97
2022-09-04T22:01:52.467Z,6.40
2022-09-04T22:02:40.617Z,5.80
2022-09-04T22:02:44.248Z,6.95
2022-09-04T22:04:44.558Z,6.83
2022-09-04T22:10:19.577Z,5.65
2022-09-04T22:13:28.351Z,6.03
2022-09-04T22:13:41.162Z,6.22
2022-09-04T22:16:30.233Z,6.32
2022-09-04T22:19:19.675Z,6.13
2022-09-04T22:22:26.185Z,7.28
2022-09-04T22:25:29.638Z,6.32
2022-09-04T22:28:27.918Z,6.03
2022-09-04T22:31:27.350Z,6.70
2022-09-04T22:34:17.134Z,7.10
2022-09-04T22:37:15.479Z,6.15
2022-09-04T22:40:00.861Z,6.47
2022-09-04T22:42:30.502Z,7.47
2022-09-04T22:45:15.307Z,7.97
2022-09-04T22:47:58.482Z,6.87
2022-09-04T22:50:50.359Z,6.72
2022-09-04T22:53:29.496Z,6.72
2022-09-04T22:56:23.031Z,7.90
2022-09-04T22:59:32.493Z,7.53
2022-09-04T23:02:14.557Z,7.97
2022-09-04T23:05:35.650Z,7.45
2022-09-04T23:13:42.930Z,6.70
2022-09-04T23:13:58.887Z,8.95
2022-09-04T23:15:07.940Z,7.72
2022-09-04T23:22:44.351Z,9.20
2022-09-04T23:26:34.727Z,7.40
2022-09-04T23:26:45.678Z,7.50
2022-09-04T23:27:11.266Z,7.10
2022-09-04T23:30:13.876Z,7.40
2022-09-04T23:33:08.784Z,7.40
2022-09-04T23:35:54.086Z,7.78
2022-09-04T23:38:51.652Z,8.43
2022-09-04T23:41:36.862Z,8.00
2022-09-04T23:44:50.312Z,7.88
2022-09-04T23:47:47.809Z,8.90
2022-09-04T23:50:47.239Z,9.13
2022-09-04T23:53:25.328Z,9.20
2022-09-04T23:56:09.186Z,7.68
2022-09-04T23:59:07.810Z,9.68
